NZOH/OHA METAR and TAF weather

Enter ICAO airport designator
Station Type Date Time Source
NZOH METAR 2020/03/21 20:00 UTC NOAA

NZOH 212000Z 34009KT 20KM -SHRA FEW030 BKN045 18/15 Q1012 TEMPO TL2130 4000 SHRA BECMG FM2130 28015KT


Station Type Date Time Source
NZOH Decoded METAR 2020/03/21 20:00 UTC NOAA

Ohakea, New Zealand (NZOH) 40-12S 175-22E 52M
Mar 21, 2020 - 04:00 PM EDT / 2020.03.21 2000 UTC
Wind: from the NNW (340 degrees) at 10 MPH (9 KT):0
Sky conditions: mostly cloudy
Weather: light rain showers
Temperature: 64 F (18 C)
Dew Point: 59 F (15 C)
Relative Humidity: 82%
Pressure (altimeter): 29.88 in. Hg (1012 hPa)
ob: NZOH 212000Z 34009KT 20KM -SHRA FEW030 BKN045 18/15 Q1012 TEMPO TL2130 4000 SHRA BECMG FM2130 28015KT
cycle: 20

Station Type Date Time Source
NZOH TAF 2007/12/14 04:59 UTC NOAA

TAF NZOH 140459Z 140606 11020KT 30KM SCT080 BECMH 0911 03008KT
BECMG 2224 27012KT

Example: see airport list